sensor_id;sensor_type;location;lat;lon;timestamp;P1;durP1;ratioP1;P2;durP2;ratioP2
25913;SDS011;13718;50.922;5.346;2023-05-16T00:01:41;18.05;;;3.75;;
25913;SDS011;13718;50.922;5.346;2023-05-16T00:04:06;26.58;;;4.20;;
25913;SDS011;13718;50.922;5.346;2023-05-16T00:06:32;19.23;;;3.60;;
25913;SDS011;13718;50.922;5.346;2023-05-16T00:08:58;16.65;;;3.47;;
25913;SDS011;13718;50.922;5.346;2023-05-16T00:11:24;24.08;;;3.33;;
25913;SDS011;13718;50.922;5.346;2023-05-16T00:13:50;20.90;;;3.85;;
25913;SDS011;13718;50.922;5.346;2023-05-16T00:16:16;18.48;;;3.38;;
25913;SDS011;13718;50.922;5.346;2023-05-16T00:18:41;20.77;;;3.55;;
25913;SDS011;13718;50.922;5.346;2023-05-16T00:21:09;23.25;;;3.72;;
25913;SDS011;13718;50.922;5.346;2023-05-16T00:23:35;30.20;;;4.35;;
25913;SDS011;13718;50.922;5.346;2023-05-16T00:26:01;17.40;;;3.05;;
25913;SDS011;13718;50.922;5.346;2023-05-16T00:28:27;23.27;;;3.42;;
25913;SDS011;13718;50.922;5.346;2023-05-16T00:30:52;25.63;;;4.40;;
25913;SDS011;13718;50.922;5.346;2023-05-16T00:33:18;20.70;;;4.18;;
25913;SDS011;13718;50.922;5.346;2023-05-16T00:35:44;20.85;;;3.80;;
25913;SDS011;13718;50.922;5.346;2023-05-16T00:38:09;25.00;;;3.65;;
25913;SDS011;13718;50.922;5.346;2023-05-16T00:40:35;21.98;;;3.70;;
25913;SDS011;13718;50.922;5.346;2023-05-16T00:43:01;29.77;;;3.53;;
25913;SDS011;13718;50.922;5.346;2023-05-16T00:45:27;20.55;;;3.45;;
25913;SDS011;13718;50.922;5.346;2023-05-16T00:47:52;20.52;;;3.42;;
25913;SDS011;13718;50.922;5.346;2023-05-16T00:50:18;26.52;;;3.40;;
25913;SDS011;13718;50.922;5.346;2023-05-16T00:52:44;27.35;;;3.17;;
25913;SDS011;13718;50.922;5.346;2023-05-16T00:55:10;26.90;;;3.58;;
25913;SDS011;13718;50.922;5.346;2023-05-16T00:57:36;22.38;;;3.10;;
25913;SDS011;13718;50.922;5.346;2023-05-16T01:00:06;25.92;;;3.38;;
25913;SDS011;13718;50.922;5.346;2023-05-16T01:02:36;30.63;;;3.80;;
25913;SDS011;13718;50.922;5.346;2023-05-16T01:05:02;25.83;;;4.35;;
25913;SDS011;13718;50.922;5.346;2023-05-16T01:07:32;18.23;;;2.90;;
25913;SDS011;13718;50.922;5.346;2023-05-16T01:09:59;18.63;;;3.15;;
25913;SDS011;13718;50.922;5.346;2023-05-16T01:15:31;24.95;;;3.30;;
25913;SDS011;13718;50.922;5.346;2023-05-16T01:20:58;23.42;;;3.05;;
25913;SDS011;13718;50.922;5.346;2023-05-16T01:23:43;23.10;;;3.47;;
25913;SDS011;13718;50.922;5.346;2023-05-16T01:26:19;20.17;;;3.28;;
25913;SDS011;13718;50.922;5.346;2023-05-16T01:28:47;21.52;;;3.38;;
25913;SDS011;13718;50.922;5.346;2023-05-16T01:31:13;20.80;;;2.88;;
25913;SDS011;13718;50.922;5.346;2023-05-16T01:33:40;15.35;;;2.75;;
25913;SDS011;13718;50.922;5.346;2023-05-16T01:41:50;22.08;;;3.45;;
25913;SDS011;13718;50.922;5.346;2023-05-16T01:44:25;22.15;;;2.75;;
25913;SDS011;13718;50.922;5.346;2023-05-16T01:46:55;22.13;;;2.80;;
25913;SDS011;13718;50.922;5.346;2023-05-16T01:49:38;20.35;;;2.85;;
25913;SDS011;13718;50.922;5.346;2023-05-16T01:52:19;22.13;;;3.00;;
25913;SDS011;13718;50.922;5.346;2023-05-16T01:54:55;24.85;;;2.80;;
25913;SDS011;13718;50.922;5.346;2023-05-16T01:57:26;19.73;;;3.00;;
25913;SDS011;13718;50.922;5.346;2023-05-16T01:59:57;20.33;;;2.60;;
25913;SDS011;13718;50.922;5.346;2023-05-16T02:02:23;19.00;;;2.50;;
25913;SDS011;13718;50.922;5.346;2023-05-16T02:04:58;19.58;;;2.88;;
25913;SDS011;13718;50.922;5.346;2023-05-16T02:07:29;22.48;;;2.80;;
25913;SDS011;13718;50.922;5.346;2023-05-16T02:09:58;20.15;;;2.63;;
25913;SDS011;13718;50.922;5.346;2023-05-16T02:12:24;18.55;;;2.95;;
25913;SDS011;13718;50.922;5.346;2023-05-16T02:14:50;24.90;;;2.65;;
25913;SDS011;13718;50.922;5.346;2023-05-16T02:17:23;19.27;;;2.67;;
25913;SDS011;13718;50.922;5.346;2023-05-16T02:19:51;19.00;;;2.47;;
25913;SDS011;13718;50.922;5.346;2023-05-16T02:22:17;29.85;;;3.13;;
25913;SDS011;13718;50.922;5.346;2023-05-16T02:24:43;19.00;;;2.78;;
25913;SDS011;13718;50.922;5.346;2023-05-16T02:27:08;24.08;;;2.55;;
25913;SDS011;13718;50.922;5.346;2023-05-16T02:29:34;30.02;;;2.50;;
25913;SDS011;13718;50.922;5.346;2023-05-16T02:32:00;16.95;;;2.35;;
25913;SDS011;13718;50.922;5.346;2023-05-16T02:34:28;23.83;;;3.38;;
25913;SDS011;13718;50.922;5.346;2023-05-16T02:36:54;18.90;;;2.28;;
25913;SDS011;13718;50.922;5.346;2023-05-16T02:39:20;25.73;;;2.58;;
25913;SDS011;13718;50.922;5.346;2023-05-16T02:41:46;22.55;;;3.28;;
25913;SDS011;13718;50.922;5.346;2023-05-16T02:44:11;15.45;;;2.20;;
25913;SDS011;13718;50.922;5.346;2023-05-16T02:46:37;20.02;;;3.08;;
25913;SDS011;13718;50.922;5.346;2023-05-16T02:49:03;16.40;;;2.03;;
25913;SDS011;13718;50.922;5.346;2023-05-16T02:51:28;26.27;;;2.80;;
25913;SDS011;13718;50.922;5.346;2023-05-16T02:53:54;19.90;;;2.53;;
25913;SDS011;13718;50.922;5.346;2023-05-16T02:56:26;21.50;;;2.60;;
25913;SDS011;13718;50.922;5.346;2023-05-16T02:58:52;19.33;;;2.47;;
25913;SDS011;13718;50.922;5.346;2023-05-16T03:01:19;20.67;;;2.70;;
25913;SDS011;13718;50.922;5.346;2023-05-16T03:03:44;19.02;;;2.45;;
25913;SDS011;13718;50.922;5.346;2023-05-16T03:06:10;20.38;;;2.63;;
25913;SDS011;13718;50.922;5.346;2023-05-16T03:08:36;22.30;;;2.15;;
25913;SDS011;13718;50.922;5.346;2023-05-16T03:11:02;21.02;;;3.30;;
25913;SDS011;13718;50.922;5.346;2023-05-16T03:13:27;22.95;;;2.65;;
25913;SDS011;13718;50.922;5.346;2023-05-16T03:15:54;19.63;;;3.00;;
25913;SDS011;13718;50.922;5.346;2023-05-16T03:18:20;18.27;;;3.13;;
25913;SDS011;13718;50.922;5.346;2023-05-16T03:20:46;17.33;;;2.95;;
25913;SDS011;13718;50.922;5.346;2023-05-16T03:23:11;20.42;;;2.33;;
25913;SDS011;13718;50.922;5.346;2023-05-16T03:25:37;17.67;;;2.60;;
25913;SDS011;13718;50.922;5.346;2023-05-16T03:28:06;14.32;;;2.15;;
25913;SDS011;13718;50.922;5.346;2023-05-16T03:30:32;28.30;;;3.35;;
25913;SDS011;13718;50.922;5.346;2023-05-16T03:32:58;26.23;;;2.58;;
25913;SDS011;13718;50.922;5.346;2023-05-16T03:35:23;26.95;;;2.65;;
25913;SDS011;13718;50.922;5.346;2023-05-16T03:37:49;16.50;;;1.98;;
25913;SDS011;13718;50.922;5.346;2023-05-16T03:40:15;20.00;;;2.80;;
25913;SDS011;13718;50.922;5.346;2023-05-16T03:42:42;15.43;;;2.17;;
25913;SDS011;13718;50.922;5.346;2023-05-16T03:45:07;22.73;;;2.30;;
25913;SDS011;13718;50.922;5.346;2023-05-16T03:47:33;17.48;;;2.50;;
25913;SDS011;13718;50.922;5.346;2023-05-16T03:49:59;18.58;;;2.38;;
25913;SDS011;13718;50.922;5.346;2023-05-16T03:52:25;19.75;;;2.63;;
25913;SDS011;13718;50.922;5.346;2023-05-16T03:54:50;21.35;;;2.63;;
25913;SDS011;13718;50.922;5.346;2023-05-16T03:57:16;23.15;;;2.92;;
25913;SDS011;13718;50.922;5.346;2023-05-16T03:59:42;18.05;;;2.30;;
25913;SDS011;13718;50.922;5.346;2023-05-16T04:02:08;22.80;;;2.67;;
25913;SDS011;13718;50.922;5.346;2023-05-16T04:04:33;25.95;;;2.60;;
25913;SDS011;13718;50.922;5.346;2023-05-16T04:07:00;25.88;;;3.58;;
25913;SDS011;13718;50.922;5.346;2023-05-16T04:09:26;16.73;;;2.50;;
25913;SDS011;13718;50.922;5.346;2023-05-16T04:11:52;16.92;;;2.63;;
25913;SDS011;13718;50.922;5.346;2023-05-16T04:14:20;25.48;;;2.58;;
25913;SDS011;13718;50.922;5.346;2023-05-16T04:16:45;17.63;;;2.63;;
25913;SDS011;13718;50.922;5.346;2023-05-16T04:19:11;20.42;;;3.47;;
25913;SDS011;13718;50.922;5.346;2023-05-16T04:21:37;16.88;;;2.33;;
25913;SDS011;13718;50.922;5.346;2023-05-16T04:24:02;21.55;;;3.85;;
25913;SDS011;13718;50.922;5.346;2023-05-16T04:26:28;17.67;;;2.85;;
25913;SDS011;13718;50.922;5.346;2023-05-16T04:28:54;27.88;;;2.78;;
25913;SDS011;13718;50.922;5.346;2023-05-16T04:31:19;17.17;;;2.65;;
25913;SDS011;13718;50.922;5.346;2023-05-16T04:33:47;20.40;;;2.60;;
25913;SDS011;13718;50.922;5.346;2023-05-16T04:36:13;21.55;;;3.20;;
25913;SDS011;13718;50.922;5.346;2023-05-16T04:38:38;24.25;;;2.95;;
25913;SDS011;13718;50.922;5.346;2023-05-16T04:41:04;19.58;;;2.42;;
25913;SDS011;13718;50.922;5.346;2023-05-16T04:43:30;18.58;;;2.50;;
25913;SDS011;13718;50.922;5.346;2023-05-16T04:45:56;23.42;;;2.80;;
25913;SDS011;13718;50.922;5.346;2023-05-16T04:48:22;19.27;;;2.55;;
25913;SDS011;13718;50.922;5.346;2023-05-16T04:50:48;16.92;;;2.28;;
25913;SDS011;13718;50.922;5.346;2023-05-16T04:53:14;19.30;;;2.75;;
25913;SDS011;13718;50.922;5.346;2023-05-16T04:55:40;22.75;;;2.63;;
25913;SDS011;13718;50.922;5.346;2023-05-16T04:58:05;17.23;;;2.42;;
25913;SDS011;13718;50.922;5.346;2023-05-16T05:00:32;20.98;;;2.65;;
25913;SDS011;13718;50.922;5.346;2023-05-16T05:02:57;22.40;;;2.70;;
25913;SDS011;13718;50.922;5.346;2023-05-16T05:05:23;24.83;;;2.90;;
25913;SDS011;13718;50.922;5.346;2023-05-16T05:07:48;21.48;;;2.67;;
25913;SDS011;13718;50.922;5.346;2023-05-16T05:10:14;25.33;;;2.25;;
25913;SDS011;13718;50.922;5.346;2023-05-16T05:12:40;25.30;;;3.05;;
25913;SDS011;13718;50.922;5.346;2023-05-16T05:15:05;12.68;;;2.47;;
25913;SDS011;13718;50.922;5.346;2023-05-16T05:17:32;16.20;;;2.33;;
25913;SDS011;13718;50.922;5.346;2023-05-16T05:19:57;18.92;;;2.63;;
25913;SDS011;13718;50.922;5.346;2023-05-16T05:22:23;16.85;;;2.22;;
25913;SDS011;13718;50.922;5.346;2023-05-16T05:24:49;18.27;;;2.58;;
25913;SDS011;13718;50.922;5.346;2023-05-16T05:27:14;20.83;;;2.55;;
25913;SDS011;13718;50.922;5.346;2023-05-16T05:29:40;14.63;;;2.40;;
25913;SDS011;13718;50.922;5.346;2023-05-16T05:32:06;16.60;;;2.88;;
25913;SDS011;13718;50.922;5.346;2023-05-16T05:34:32;15.93;;;2.25;;
25913;SDS011;13718;50.922;5.346;2023-05-16T05:36:58;12.70;;;2.08;;
25913;SDS011;13718;50.922;5.346;2023-05-16T05:39:23;16.90;;;2.50;;
25913;SDS011;13718;50.922;5.346;2023-05-16T05:41:49;18.50;;;2.70;;
25913;SDS011;13718;50.922;5.346;2023-05-16T05:44:15;15.63;;;2.35;;
25913;SDS011;13718;50.922;5.346;2023-05-16T05:46:41;15.98;;;2.22;;
25913;SDS011;13718;50.922;5.346;2023-05-16T05:49:07;13.52;;;1.85;;
25913;SDS011;13718;50.922;5.346;2023-05-16T05:51:33;18.52;;;2.28;;
25913;SDS011;13718;50.922;5.346;2023-05-16T05:54:00;18.83;;;2.47;;
25913;SDS011;13718;50.922;5.346;2023-05-16T05:56:26;17.40;;;2.15;;
25913;SDS011;13718;50.922;5.346;2023-05-16T05:58:52;14.95;;;2.13;;
25913;SDS011;13718;50.922;5.346;2023-05-16T06:01:18;20.05;;;2.88;;
25913;SDS011;13718;50.922;5.346;2023-05-16T06:03:45;15.95;;;2.15;;
25913;SDS011;13718;50.922;5.346;2023-05-16T06:06:11;15.48;;;1.83;;
25913;SDS011;13718;50.922;5.346;2023-05-16T06:08:38;13.02;;;2.42;;
25913;SDS011;13718;50.922;5.346;2023-05-16T06:11:04;11.88;;;2.10;;
25913;SDS011;13718;50.922;5.346;2023-05-16T06:13:30;14.02;;;2.20;;
25913;SDS011;13718;50.922;5.346;2023-05-16T06:15:56;10.82;;;2.22;;
25913;SDS011;13718;50.922;5.346;2023-05-16T06:18:21;14.60;;;2.50;;
25913;SDS011;13718;50.922;5.346;2023-05-16T06:20:47;10.73;;;1.80;;
25913;SDS011;13718;50.922;5.346;2023-05-16T06:23:13;13.95;;;1.55;;
25913;SDS011;13718;50.922;5.346;2023-05-16T06:25:38;11.50;;;1.52;;
25913;SDS011;13718;50.922;5.346;2023-05-16T06:28:04;12.40;;;1.63;;
25913;SDS011;13718;50.922;5.346;2023-05-16T06:30:29;10.32;;;1.98;;
25913;SDS011;13718;50.922;5.346;2023-05-16T06:32:55;10.20;;;1.70;;
25913;SDS011;13718;50.922;5.346;2023-05-16T06:35:21;12.27;;;1.85;;
25913;SDS011;13718;50.922;5.346;2023-05-16T06:37:47;13.35;;;1.70;;
25913;SDS011;13718;50.922;5.346;2023-05-16T06:40:13;11.75;;;1.65;;
25913;SDS011;13718;50.922;5.346;2023-05-16T06:42:38;12.02;;;2.30;;
25913;SDS011;13718;50.922;5.346;2023-05-16T06:45:04;13.30;;;1.88;;
25913;SDS011;13718;50.922;5.346;2023-05-16T06:47:31;11.75;;;2.40;;
25913;SDS011;13718;50.922;5.346;2023-05-16T06:49:56;8.43;;;1.50;;
25913;SDS011;13718;50.922;5.346;2023-05-16T06:52:22;13.75;;;1.70;;
25913;SDS011;13718;50.922;5.346;2023-05-16T06:54:47;12.40;;;1.60;;
25913;SDS011;13718;50.922;5.346;2023-05-16T06:57:13;12.50;;;2.08;;
25913;SDS011;13718;50.922;5.346;2023-05-16T06:59:39;7.97;;;1.50;;
25913;SDS011;13718;50.922;5.346;2023-05-16T07:02:05;10.05;;;1.50;;
25913;SDS011;13718;50.922;5.346;2023-05-16T07:04:31;10.45;;;2.05;;
25913;SDS011;13718;50.922;5.346;2023-05-16T07:06:58;9.65;;;2.05;;
25913;SDS011;13718;50.922;5.346;2023-05-16T07:09:23;7.35;;;1.40;;
25913;SDS011;13718;50.922;5.346;2023-05-16T07:11:49;11.25;;;1.58;;
25913;SDS011;13718;50.922;5.346;2023-05-16T07:14:14;8.80;;;1.42;;
25913;SDS011;13718;50.922;5.346;2023-05-16T07:16:40;11.32;;;1.50;;
25913;SDS011;13718;50.922;5.346;2023-05-16T07:19:06;8.73;;;1.50;;
25913;SDS011;13718;50.922;5.346;2023-05-16T07:21:32;12.75;;;1.80;;
25913;SDS011;13718;50.922;5.346;2023-05-16T07:23:57;7.72;;;1.30;;
25913;SDS011;13718;50.922;5.346;2023-05-16T07:26:23;13.20;;;2.67;;
25913;SDS011;13718;50.922;5.346;2023-05-16T07:28:49;9.65;;;1.60;;
25913;SDS011;13718;50.922;5.346;2023-05-16T07:31:15;12.25;;;1.92;;
25913;SDS011;13718;50.922;5.346;2023-05-16T07:33:41;9.13;;;2.00;;
25913;SDS011;13718;50.922;5.346;2023-05-16T07:36:08;5.43;;;1.50;;
25913;SDS011;13718;50.922;5.346;2023-05-16T07:38:34;9.25;;;1.85;;
25913;SDS011;13718;50.922;5.346;2023-05-16T07:41:00;10.38;;;1.80;;
25913;SDS011;13718;50.922;5.346;2023-05-16T07:43:25;9.90;;;1.85;;
25913;SDS011;13718;50.922;5.346;2023-05-16T07:45:51;10.07;;;1.50;;
25913;SDS011;13718;50.922;5.346;2023-05-16T07:48:17;7.30;;;1.58;;
25913;SDS011;13718;50.922;5.346;2023-05-16T07:50:42;6.80;;;1.70;;
25913;SDS011;13718;50.922;5.346;2023-05-16T07:53:08;11.48;;;2.00;;
25913;SDS011;13718;50.922;5.346;2023-05-16T07:55:34;10.50;;;1.80;;
25913;SDS011;13718;50.922;5.346;2023-05-16T07:57:59;8.80;;;1.15;;
25913;SDS011;13718;50.922;5.346;2023-05-16T08:00:25;8.25;;;1.85;;
25913;SDS011;13718;50.922;5.346;2023-05-16T08:02:51;7.88;;;1.40;;
25913;SDS011;13718;50.922;5.346;2023-05-16T08:05:17;9.80;;;1.77;;
25913;SDS011;13718;50.922;5.346;2023-05-16T08:07:42;9.63;;;1.55;;
25913;SDS011;13718;50.922;5.346;2023-05-16T08:10:08;12.50;;;1.83;;
25913;SDS011;13718;50.922;5.346;2023-05-16T08:12:34;11.63;;;1.40;;
25913;SDS011;13718;50.922;5.346;2023-05-16T08:15:00;10.23;;;1.52;;
25913;SDS011;13718;50.922;5.346;2023-05-16T08:17:26;10.88;;;1.63;;
25913;SDS011;13718;50.922;5.346;2023-05-16T08:19:52;9.65;;;1.73;;
25913;SDS011;13718;50.922;5.346;2023-05-16T08:22:18;11.05;;;1.58;;
25913;SDS011;13718;50.922;5.346;2023-05-16T08:24:43;9.43;;;1.20;;
25913;SDS011;13718;50.922;5.346;2023-05-16T08:27:09;6.30;;;1.13;;
25913;SDS011;13718;50.922;5.346;2023-05-16T08:29:36;9.02;;;1.10;;
25913;SDS011;13718;50.922;5.346;2023-05-16T08:32:01;6.90;;;1.30;;
25913;SDS011;13718;50.922;5.346;2023-05-16T08:34:29;9.23;;;1.02;;
25913;SDS011;13718;50.922;5.346;2023-05-16T08:36:56;12.60;;;1.30;;
25913;SDS011;13718;50.922;5.346;2023-05-16T08:39:21;4.03;;;1.00;;
25913;SDS011;13718;50.922;5.346;2023-05-16T08:41:47;10.05;;;1.40;;
25913;SDS011;13718;50.922;5.346;2023-05-16T08:44:13;7.85;;;1.20;;
25913;SDS011;13718;50.922;5.346;2023-05-16T08:46:46;7.30;;;1.23;;
25913;SDS011;13718;50.922;5.346;2023-05-16T08:49:16;4.57;;;1.17;;
25913;SDS011;13718;50.922;5.346;2023-05-16T08:51:42;5.57;;;1.08;;
25913;SDS011;13718;50.922;5.346;2023-05-16T08:54:10;8.00;;;1.10;;
25913;SDS011;13718;50.922;5.346;2023-05-16T08:56:38;9.02;;;1.23;;
25913;SDS011;13718;50.922;5.346;2023-05-16T08:59:06;7.95;;;1.20;;
25913;SDS011;13718;50.922;5.346;2023-05-16T09:01:31;7.28;;;1.20;;
25913;SDS011;13718;50.922;5.346;2023-05-16T09:03:58;7.38;;;1.20;;
25913;SDS011;13718;50.922;5.346;2023-05-16T09:06:25;8.82;;;1.23;;
25913;SDS011;13718;50.922;5.346;2023-05-16T09:08:51;5.35;;;1.10;;
25913;SDS011;13718;50.922;5.346;2023-05-16T09:11:18;11.02;;;1.75;;
25913;SDS011;13718;50.922;5.346;2023-05-16T09:13:43;6.68;;;1.10;;
25913;SDS011;13718;50.922;5.346;2023-05-16T09:16:13;6.90;;;1.40;;
25913;SDS011;13718;50.922;5.346;2023-05-16T09:18:51;5.82;;;0.90;;
25913;SDS011;13718;50.922;5.346;2023-05-16T09:21:19;7.60;;;1.15;;
25913;SDS011;13718;50.922;5.346;2023-05-16T09:23:47;8.75;;;1.10;;
25913;SDS011;13718;50.922;5.346;2023-05-16T09:26:13;6.97;;;1.00;;
25913;SDS011;13718;50.922;5.346;2023-05-16T09:28:40;6.18;;;0.90;;
25913;SDS011;13718;50.922;5.346;2023-05-16T09:31:21;5.93;;;1.15;;
25913;SDS011;13718;50.922;5.346;2023-05-16T09:33:51;6.20;;;1.20;;
25913;SDS011;13718;50.922;5.346;2023-05-16T09:36:17;8.35;;;0.93;;
25913;SDS011;13718;50.922;5.346;2023-05-16T09:38:42;5.30;;;0.90;;
25913;SDS011;13718;50.922;5.346;2023-05-16T09:41:09;7.20;;;0.93;;
25913;SDS011;13718;50.922;5.346;2023-05-16T09:43:36;7.90;;;1.10;;
25913;SDS011;13718;50.922;5.346;2023-05-16T09:46:03;7.22;;;0.90;;
25913;SDS011;13718;50.922;5.346;2023-05-16T09:48:29;4.82;;;1.00;;
25913;SDS011;13718;50.922;5.346;2023-05-16T09:50:57;4.93;;;1.00;;
25913;SDS011;13718;50.922;5.346;2023-05-16T09:53:31;8.48;;;1.30;;
25913;SDS011;13718;50.922;5.346;2023-05-16T09:56:01;7.07;;;0.80;;
25913;SDS011;13718;50.922;5.346;2023-05-16T09:58:29;6.20;;;0.90;;
25913;SDS011;13718;50.922;5.346;2023-05-16T10:00:56;8.75;;;1.00;;
25913;SDS011;13718;50.922;5.346;2023-05-16T10:03:23;5.22;;;0.88;;
25913;SDS011;13718;50.922;5.346;2023-05-16T10:05:50;9.40;;;1.20;;
25913;SDS011;13718;50.922;5.346;2023-05-16T10:08:17;6.15;;;1.00;;
25913;SDS011;13718;50.922;5.346;2023-05-16T10:10:49;7.30;;;1.08;;
25913;SDS011;13718;50.922;5.346;2023-05-16T10:13:20;8.70;;;1.10;;
25913;SDS011;13718;50.922;5.346;2023-05-16T10:15:54;3.40;;;1.00;;
25913;SDS011;13718;50.922;5.346;2023-05-16T10:18:22;5.68;;;0.85;;
25913;SDS011;13718;50.922;5.346;2023-05-16T10:20:54;8.98;;;1.15;;
25913;SDS011;13718;50.922;5.346;2023-05-16T10:23:21;3.30;;;0.68;;
25913;SDS011;13718;50.922;5.346;2023-05-16T10:25:50;6.63;;;0.88;;
25913;SDS011;13718;50.922;5.346;2023-05-16T10:28:16;5.10;;;0.90;;
25913;SDS011;13718;50.922;5.346;2023-05-16T10:30:45;8.68;;;1.50;;
25913;SDS011;13718;50.922;5.346;2023-05-16T10:33:15;4.43;;;0.65;;
25913;SDS011;13718;50.922;5.346;2023-05-16T10:35:42;10.75;;;1.35;;
25913;SDS011;13718;50.922;5.346;2023-05-16T10:38:09;8.10;;;1.05;;
25913;SDS011;13718;50.922;5.346;2023-05-16T10:40:37;8.18;;;1.00;;
25913;SDS011;13718;50.922;5.346;2023-05-16T10:43:04;4.75;;;1.00;;
25913;SDS011;13718;50.922;5.346;2023-05-16T10:45:31;8.52;;;1.30;;
25913;SDS011;13718;50.922;5.346;2023-05-16T10:48:01;8.35;;;1.20;;
25913;SDS011;13718;50.922;5.346;2023-05-16T10:50:38;5.83;;;1.37;;
25913;SDS011;13718;50.922;5.346;2023-05-16T10:53:13;6.30;;;1.15;;
25913;SDS011;13718;50.922;5.346;2023-05-16T11:11:43;7.30;;;1.00;;
25913;SDS011;13718;50.922;5.346;2023-05-16T11:14:21;6.28;;;1.17;;
25913;SDS011;13718;50.922;5.346;2023-05-16T11:16:53;7.38;;;1.10;;
25913;SDS011;13718;50.922;5.346;2023-05-16T11:19:54;16.52;;;1.20;;
25913;SDS011;13718;50.922;5.346;2023-05-16T11:22:25;8.15;;;1.27;;
25913;SDS011;13718;50.922;5.346;2023-05-16T11:27:27;3.53;;;1.00;;
25913;SDS011;13718;50.922;5.346;2023-05-16T11:30:16;5.63;;;0.73;;
25913;SDS011;13718;50.922;5.346;2023-05-16T11:32:45;4.65;;;1.10;;
25913;SDS011;13718;50.922;5.346;2023-05-16T11:35:12;4.68;;;0.60;;
25913;SDS011;13718;50.922;5.346;2023-05-16T11:37:41;5.50;;;0.80;;
25913;SDS011;13718;50.922;5.346;2023-05-16T11:40:08;6.15;;;0.90;;
25913;SDS011;13718;50.922;5.346;2023-05-16T11:42:39;5.80;;;1.10;;
25913;SDS011;13718;50.922;5.346;2023-05-16T11:45:06;5.95;;;0.95;;
25913;SDS011;13718;50.922;5.346;2023-05-16T11:47:36;3.90;;;0.90;;
25913;SDS011;13718;50.922;5.346;2023-05-16T11:50:10;3.17;;;0.73;;
25913;SDS011;13718;50.922;5.346;2023-05-16T11:52:43;8.27;;;1.00;;
25913;SDS011;13718;50.922;5.346;2023-05-16T11:55:14;3.90;;;0.70;;
25913;SDS011;13718;50.922;5.346;2023-05-16T11:57:42;5.30;;;0.93;;
25913;SDS011;13718;50.922;5.346;2023-05-16T12:00:17;6.45;;;1.00;;
25913;SDS011;13718;50.922;5.346;2023-05-16T12:02:45;7.47;;;0.90;;
25913;SDS011;13718;50.922;5.346;2023-05-16T12:05:12;5.32;;;0.93;;
25913;SDS011;13718;50.922;5.346;2023-05-16T12:07:39;2.85;;;0.82;;
25913;SDS011;13718;50.922;5.346;2023-05-16T12:10:06;5.05;;;0.77;;
25913;SDS011;13718;50.922;5.346;2023-05-16T12:12:32;5.22;;;0.88;;
25913;SDS011;13718;50.922;5.346;2023-05-16T12:14:59;7.30;;;1.45;;
25913;SDS011;13718;50.922;5.346;2023-05-16T12:17:26;6.90;;;0.80;;
25913;SDS011;13718;50.922;5.346;2023-05-16T12:19:52;3.20;;;0.80;;
25913;SDS011;13718;50.922;5.346;2023-05-16T12:22:21;7.75;;;1.00;;
25913;SDS011;13718;50.922;5.346;2023-05-16T12:24:49;8.57;;;1.30;;
25913;SDS011;13718;50.922;5.346;2023-05-16T12:27:21;8.13;;;1.27;;
25913;SDS011;13718;50.922;5.346;2023-05-16T12:29:48;6.40;;;1.50;;
25913;SDS011;13718;50.922;5.346;2023-05-16T12:32:20;6.75;;;1.00;;
25913;SDS011;13718;50.922;5.346;2023-05-16T12:34:49;7.30;;;1.00;;
25913;SDS011;13718;50.922;5.346;2023-05-16T12:37:16;4.97;;;1.02;;
25913;SDS011;13718;50.922;5.346;2023-05-16T12:39:42;6.75;;;1.20;;
25913;SDS011;13718;50.922;5.346;2023-05-16T12:42:11;5.70;;;0.82;;
25913;SDS011;13718;50.922;5.346;2023-05-16T12:44:38;4.10;;;0.88;;
25913;SDS011;13718;50.922;5.346;2023-05-16T12:47:09;5.03;;;0.90;;
25913;SDS011;13718;50.922;5.346;2023-05-16T12:49:36;7.57;;;1.20;;
25913;SDS011;13718;50.922;5.346;2023-05-16T12:52:08;6.00;;;1.27;;
25913;SDS011;13718;50.922;5.346;2023-05-16T12:54:43;5.30;;;1.10;;
25913;SDS011;13718;50.922;5.346;2023-05-16T12:57:09;9.80;;;1.17;;
25913;SDS011;13718;50.922;5.346;2023-05-16T12:59:35;8.00;;;1.25;;
25913;SDS011;13718;50.922;5.346;2023-05-16T13:02:01;4.45;;;1.10;;
25913;SDS011;13718;50.922;5.346;2023-05-16T13:04:27;5.20;;;1.30;;
25913;SDS011;13718;50.922;5.346;2023-05-16T13:06:53;6.70;;;1.20;;
25913;SDS011;13718;50.922;5.346;2023-05-16T13:09:19;9.35;;;1.45;;
25913;SDS011;13718;50.922;5.346;2023-05-16T13:11:44;7.38;;;1.13;;
25913;SDS011;13718;50.922;5.346;2023-05-16T13:14:10;4.53;;;1.00;;
25913;SDS011;13718;50.922;5.346;2023-05-16T13:16:36;12.15;;;1.77;;
25913;SDS011;13718;50.922;5.346;2023-05-16T13:19:02;8.25;;;1.27;;
25913;SDS011;13718;50.922;5.346;2023-05-16T13:21:29;8.27;;;1.38;;
25913;SDS011;13718;50.922;5.346;2023-05-16T13:23:55;6.13;;;1.17;;
25913;SDS011;13718;50.922;5.346;2023-05-16T13:26:22;4.72;;;1.02;;
25913;SDS011;13718;50.922;5.346;2023-05-16T13:28:47;9.02;;;1.05;;
25913;SDS011;13718;50.922;5.346;2023-05-16T13:31:16;6.22;;;1.40;;
25913;SDS011;13718;50.922;5.346;2023-05-16T13:33:43;8.20;;;1.30;;
25913;SDS011;13718;50.922;5.346;2023-05-16T13:36:08;7.18;;;1.30;;
25913;SDS011;13718;50.922;5.346;2023-05-16T13:38:34;9.27;;;1.55;;
25913;SDS011;13718;50.922;5.346;2023-05-16T13:41:00;10.40;;;1.42;;
25913;SDS011;13718;50.922;5.346;2023-05-16T13:43:26;6.55;;;1.13;;
25913;SDS011;13718;50.922;5.346;2023-05-16T13:45:51;8.50;;;1.35;;
25913;SDS011;13718;50.922;5.346;2023-05-16T13:48:17;4.47;;;1.23;;
25913;SDS011;13718;50.922;5.346;2023-05-16T13:50:43;7.75;;;1.50;;
25913;SDS011;13718;50.922;5.346;2023-05-16T13:53:09;6.32;;;1.27;;
25913;SDS011;13718;50.922;5.346;2023-05-16T13:55:35;9.38;;;1.50;;
25913;SDS011;13718;50.922;5.346;2023-05-16T13:58:00;4.13;;;1.38;;
25913;SDS011;13718;50.922;5.346;2023-05-16T14:00:27;6.65;;;1.30;;
25913;SDS011;13718;50.922;5.346;2023-05-16T14:02:53;7.40;;;1.20;;
25913;SDS011;13718;50.922;5.346;2023-05-16T14:05:19;4.47;;;1.00;;
25913;SDS011;13718;50.922;5.346;2023-05-16T14:07:44;3.85;;;1.13;;
25913;SDS011;13718;50.922;5.346;2023-05-16T14:10:10;4.88;;;0.85;;
25913;SDS011;13718;50.922;5.346;2023-05-16T14:12:36;5.40;;;1.35;;
25913;SDS011;13718;50.922;5.346;2023-05-16T14:15:02;5.35;;;2.17;;
25913;SDS011;13718;50.922;5.346;2023-05-16T14:17:29;3.95;;;1.10;;
25913;SDS011;13718;50.922;5.346;2023-05-16T14:19:54;5.45;;;1.40;;
25913;SDS011;13718;50.922;5.346;2023-05-16T14:22:20;5.18;;;1.08;;
25913;SDS011;13718;50.922;5.346;2023-05-16T14:24:45;4.72;;;1.35;;
25913;SDS011;13718;50.922;5.346;2023-05-16T14:27:11;6.78;;;1.15;;
25913;SDS011;13718;50.922;5.346;2023-05-16T14:29:38;7.28;;;1.50;;
25913;SDS011;13718;50.922;5.346;2023-05-16T14:32:04;9.98;;;1.88;;
25913;SDS011;13718;50.922;5.346;2023-05-16T14:34:30;6.60;;;1.38;;
25913;SDS011;13718;50.922;5.346;2023-05-16T14:36:56;4.80;;;1.10;;
25913;SDS011;13718;50.922;5.346;2023-05-16T14:39:22;4.57;;;1.10;;
25913;SDS011;13718;50.922;5.346;2023-05-16T14:41:47;3.85;;;1.10;;
25913;SDS011;13718;50.922;5.346;2023-05-16T14:44:13;5.45;;;1.30;;
25913;SDS011;13718;50.922;5.346;2023-05-16T14:46:39;3.67;;;1.20;;
25913;SDS011;13718;50.922;5.346;2023-05-16T14:49:04;3.85;;;1.40;;
25913;SDS011;13718;50.922;5.346;2023-05-16T14:51:30;7.72;;;1.40;;
25913;SDS011;13718;50.922;5.346;2023-05-16T14:53:56;6.65;;;1.30;;
25913;SDS011;13718;50.922;5.346;2023-05-16T14:56:21;5.35;;;1.40;;
25913;SDS011;13718;50.922;5.346;2023-05-16T14:58:47;6.75;;;1.40;;
25913;SDS011;13718;50.922;5.346;2023-05-16T15:01:13;5.50;;;1.13;;
25913;SDS011;13718;50.922;5.346;2023-05-16T15:03:40;4.65;;;1.30;;
25913;SDS011;13718;50.922;5.346;2023-05-16T15:06:06;8.15;;;1.30;;
25913;SDS011;13718;50.922;5.346;2023-05-16T15:08:32;3.95;;;1.08;;
25913;SDS011;13718;50.922;5.346;2023-05-16T15:10:58;8.02;;;1.20;;